Weather observations for the past three days for
Harrisonville Lawrence Smith Memorial Airport
Imperial (Metric)
Date Time (cdt) Wind (mph) Vis. (mi.) Weather Sky Cond. Temperature (ºF) Relative Humidity Wind Chill (°F) Heat Index (°F) Pressure Precipitation (in)
Air Dwpt 6 hour altimeter (in) sea level (mb) 1 hr 3 hr 6 hr
Max. Min.
01 05:15 Calm 10.00 Fair CLR 68 62.6 83% 30.04 0.0
01 04:55 Calm 10.00 Fair CLR 68 62.6 83% 30.03 0.0
01 04:35 Calm 10.00 Fair CLR 69.8 62.6 78% 30.03 0.0
01 04:15 Calm 10.00 Fair CLR 69.8 62.6 78% 30.02 0.0
01 03:55 SE 3 10.00 Fair CLR 69.8 62.6 78% 30.02 0.0
01 03:35 Calm 10.00 Fair CLR 69.8 62.6 78% 30.02 0.0
01 03:15 Calm 10.00 Fair CLR 73.4 60.8 65% 30.02 0.0
01 02:55 S 3 10.00 Fair CLR 71.6 62.6 73% 30.02 0.0
01 02:35 Calm 10.00 Fair CLR 71.6 62.6 73% 30.02 0.0
01 02:15 S 3 10.00 Fair CLR 73.4 60.8 65% 30.02 0.0
01 01:55 SE 3 10.00 Fair CLR 71.6 62.6 73% 30.02 0.0
01 01:35 Calm 10.00 Fair CLR 71.6 62.6 73% 30.02 0.0
01 01:15 Calm 10.00 Fair CLR 71.6 62.6 73% 30.02 0.0
01 00:55 Calm 10.00 Fair CLR 71.6 62.6 73% 30.02 0.0
01 00:35 Calm 10.00 Fair CLR 71.6 62.6 73% 30.02 0.0
01 00:15 Calm 10.00 Fair CLR 71.6 62.6 73% 30.02 0.0
31 23:55 Calm 10.00 Fair CLR 73.4 62.6 69% 30.01 0.0
31 23:35 Calm 10.00 Fair CLR 73.4 62.6 69% 30.01 0.0
31 23:15 Calm 10.00 Fair CLR 75.2 62.6 65% 77 30.01 0.0
31 22:55 Calm 10.00 Fair CLR 77 62.6 61% 79 30.01 0.0
31 22:35 Calm 10.00 Fair CLR 78.8 60.8 54% 80 30.01 0.0
31 22:15 Calm 10.00 Fair CLR 80.6 59 48% 81 30.01 0.0
31 21:55 Calm 10.00 Fair CLR 82.4 59 45% 82 30.01 0.0
31 21:35 S 3 10.00 Fair CLR 86 59 40% 85 30 0.0
31 21:15 S 6 10.00 Fair CLR 86 57.2 38% 85 30 0.0
31 20:55 S 5 10.00 Fair CLR 87.8 55.4 33% 86 29.99 0.0
31 20:35 S 5 10.00 Fair CLR 89.6 55.4 31% 88 29.99 0.0
31 20:15 S 5 10.00 Fair CLR 89.6 57.2 33% 88 29.98 0.0
31 19:55 S 5 10.00 Fair CLR 91.4 59 34% 91 29.97 0.0
31 19:35 S 3 10.00 Fair CLR 93.2 59 32% 93 29.97 0.0
31 19:15 S 5 10.00 Fair CLR 95 59 30% 94 29.97 0.0
31 18:55 S 6 10.00 Fair CLR 96.8 59 28% 96 29.97 0.0
31 18:35 S 8 10.00 Fair CLR 98.6 59 27% 98 29.97 0.0
31 18:15 S 7 10.00 Fair CLR 98.6 57.2 25% 98 29.96 0.0
31 17:55 S 9 G 16 10.00 Fair CLR 100.4 57.2 24% 100 29.96 0.0
31 17:35 S 9 10.00 Fair CLR 100.4 57.2 24% 100 29.96 0.0
31 17:15 S 8 10.00 Fair CLR 100.4 59 25% 100 29.97 0.0
31 16:55 SW 7 10.00 Fair CLR 100.4 59 25% 100 29.97 0.0
31 16:35 SW 9 10.00 Fair CLR 100.4 59 25% 100 29.97 0.0
31 16:15 SW 14 10.00 Fair CLR 102.2 59 24% 102 29.97 0.0
31 15:55 SW 6 10.00 Fair CLR 100.4 60.8 27% 101 29.98 0.0
31 15:35 SW 9 10.00 Fair CLR 100.4 59 25% 100 29.98 0.0
31 15:15 SW 10 10.00 Fair CLR 100.4 57.2 24% 100 29.98 0.0
31 14:55 SW 13 10.00 Fair CLR 100.4 57.2 24% 100 29.98 0.0
31 14:35 SW 9 G 17 10.00 Fair CLR 102.2 59 24% 102 29.99 0.0
31 14:15 W 10 G 18 10.00 Fair CLR 100.4 59 25% 100 29.99 0.0
31 13:55 SW 13 G 20 10.00 Fair CLR 100.4 59 25% 100 30 0.0
31 13:35 SW 12 10.00 Fair CLR 100.4 60.8 27% 101 30 0.0
31 13:15 SW 12 10.00 Fair CLR 98.6 59 27% 98 30.01 0.0
31 12:55 SW 10 G 17 10.00 Fair CLR 98.6 60.8 29% 99 30.02 0.0
31 12:35 SW 14 G 18 10.00 Fair CLR 96.8 60.8 30% 97 30.02 0.0
31 12:15 SW 9 10.00 Fair CLR 95 60.8 32% 95 30.03 0.0
31 11:55 SW 10 G 16 10.00 Fair CLR 95 60.8 32% 95 30.04 0.0
31 11:35 SW 12 G 20 10.00 Fair CLR 95 60.8 32% 95 30.04 0.0
31 11:15 SW 10 10.00 Fair CLR 93.2 62.6 36% 94 30.04 0.0
31 10:55 SW 12 10.00 Fair CLR 91.4 62.6 38% 92 30.04 0.0
31 10:35 SW 10 10.00 Fair CLR 89.6 62.6 41% 90 30.04 0.0
31 10:15 SW 9 10.00 Fair CLR 87.8 62.6 43% 88 30.04 0.0
31 09:55 SW 9 10.00 Fair CLR 86 62.6 46% 87 30.04 0.0
31 09:35 SW 9 10.00 Fair CLR 84.2 62.6 48% 85 30.04 0.0
31 09:15 SW 10 10.00 Fair CLR 82.4 62.6 51% 83 30.05 0.0
31 08:55 SW 7 10.00 Fair CLR 80.6 62.6 54% 82 30.04 0.0
31 08:35 S 7 10.00 Fair CLR 78.8 62.6 58% 80 30.04 0.0
31 08:15 S 6 10.00 Fair CLR 77 62.6 61% 79 30.04 0.0
31 07:55 SW 3 10.00 Fair CLR 73.4 62.6 69% 30.04 0.0
31 07:35 Calm 7.00 Fair CLR 71.6 62.6 73% 30.03 0.0
31 07:15 Calm 10.00 Fair CLR 71.6 62.6 73% 30.02 0.0
31 06:55 Calm 10.00 Fair CLR 73.4 60.8 65% 30.02 0.0
31 06:35 S 3 10.00 Fair CLR 73.4 62.6 69% 30.01 0.0
31 06:15 S 6 10.00 Fair CLR 73.4 62.6 69% 30 0.0
31 05:55 S 3 10.00 Fair CLR 73.4 62.6 69% 30 0.0
31 05:35 S 5 10.00 Fair CLR 73.4 62.6 69% 29.99 0.0
31 05:15 S 5 10.00 Fair CLR 75.2 62.6 65% 77 30 0.0
31 04:55 S 3 10.00 Fair CLR 75.2 62.6 65% 77 29.99 0.0
31 04:35 S 3 10.00 Fair CLR 75.2 62.6 65% 77 29.99 0.0
31 04:15 S 3 10.00 Fair CLR 73.4 62.6 69% 29.99 0.0
31 03:55 Calm 10.00 Fair CLR 75.2 60.8 61% 77 29.98 0.0
31 03:35 S 3 10.00 Fair CLR 77 60.8 57% 79 29.98 0.0
31 03:15 S 3 10.00 Fair CLR 77 60.8 57% 79 29.98 0.0
31 02:55 S 3 10.00 Fair CLR 77 60.8 57% 79 29.97 0.0
31 02:35 S 5 10.00 Fair CLR 77 60.8 57% 79 29.97 0.0
31 02:15 S 5 10.00 Fair CLR 78.8 60.8 54% 80 29.97 0.0
31 01:55 S 5 10.00 Fair CLR 78.8 60.8 54% 80 29.97 0.0
31 01:35 S 3 10.00 Fair CLR 77 60.8 57% 79 29.96 0.0
31 01:15 S 5 10.00 Fair CLR 77 60.8 57% 79 29.96 0.0
31 00:55 Calm 10.00 Fair CLR 77 62.6 61% 79 29.96 0.0
31 00:35 S 3 10.00 Fair CLR 77 62.6 61% 79 29.95 0.0
31 00:15 Calm 10.00 Fair CLR 78.8 62.6 58% 80 29.95 0.0
30 23:55 SE 3 10.00 Fair CLR 78.8 60.8 54% 80 29.95 0.0
30 23:35 S 3 10.00 Fair CLR 82.4 60.8 48% 83 29.95 0.0
30 23:15 S 5 10.00 Fair CLR 82.4 60.8 48% 83 29.95 0.0
30 22:55 S 5 10.00 Fair CLR 82.4 60.8 48% 83 29.95 0.0
30 22:35 S 5 10.00 Fair CLR 82.4 60.8 48% 83 29.95 0.0
30 22:15 S 3 10.00 Fair CLR 86 60.8 43% 86 29.95 0.0
30 21:55 S 5 10.00 Fair CLR 86 60.8 43% 86 29.95 0.0
30 21:35 S 5 10.00 Fair CLR 86 60.8 43% 86 29.94 0.0
30 21:15 S 5 10.00 Fair CLR 86 60.8 43% 86 29.94 0.0
30 20:55 S 5 10.00 Fair CLR 87.8 60.8 40% 88 29.93 0.0
30 20:35 S 5 10.00 Fair CLR 87.8 60.8 40% 88 29.92 0.0
30 20:15 S 5 10.00 Fair CLR 89.6 60.8 38% 90 29.92 0.0
30 19:55 S 6 10.00 Fair CLR 91.4 59 34% 91 29.9 0.0
30 19:35 S 6 10.00 Fair CLR 93.2 59 32% 93 29.9 0.0
30 19:15 S 8 10.00 Fair CLR 95 59 30% 94 29.9 0.0
30 18:55 S 9 10.00 Fair CLR 96.8 59 28% 96 29.9 0.0
30 18:35 S 7 10.00 Fair CLR 96.8 60.8 30% 97 29.9 0.0
30 18:15 S 9 G 16 10.00 Fair CLR 98.6 59 27% 98 29.9 0.0
30 17:55 S 8 G 18 10.00 Fair CLR 98.6 59 27% 98 29.9 0.0
30 17:35 S 10 G 17 10.00 Fair CLR 100.4 59 25% 100 29.9 0.0
30 17:15 S 12 G 20 10.00 Fair CLR 100.4 59 25% 100 29.9 0.0
30 16:55 S 12 G 20 10.00 Fair CLR 100.4 59 25% 100 29.9 0.0
30 16:35 SW 13 G 21 10.00 Fair CLR 100.4 59 25% 100 29.9 0.0
30 16:15 S 10 G 18 10.00 Fair CLR 100.4 60.8 27% 101 29.91 0.0
30 15:55 SW 12 G 17 10.00 Fair CLR 100.4 60.8 27% 101 29.92 0.0
30 15:35 S 13 G 18 10.00 Fair CLR 100.4 60.8 27% 101 29.93 0.0
30 15:15 SW 14 G 21 10.00 Fair CLR 100.4 60.8 27% 101 29.94 0.0
30 14:55 S 12 G 20 10.00 Fair CLR 100.4 60.8 27% 101 29.94 0.0
30 14:35 SW 12 G 17 10.00 Fair CLR 100.4 60.8 27% 101 29.95 0.0
30 14:15 S 12 G 16 10.00 Fair CLR 98.6 60.8 29% 99 29.95 0.0
30 13:55 SW 15 G 20 10.00 Fair CLR 98.6 60.8 29% 99 29.96 0.0
30 13:35 SW 14 G 21 10.00 Fair CLR 96.8 60.8 30% 97 29.96 0.0
30 13:15 S 13 G 18 10.00 Fair CLR 96.8 60.8 30% 97 29.97 0.0
30 12:55 SW 13 G 22 10.00 Fair CLR 95 60.8 32% 95 29.97 0.0
30 12:35 S 14 G 21 10.00 Fair CLR 95 60.8 32% 95 29.98 0.0
30 12:15 SW 15 G 20 10.00 Fair CLR 95 59 30% 94 29.99 0.0
30 11:55 SW 15 G 18 10.00 Fair CLR 91.4 59 34% 91 29.99 0.0
30 11:35 S 13 G 17 10.00 Fair CLR 91.4 60.8 36% 91 29.99 0.0
30 11:15 SW 12 G 20 10.00 Fair CLR 87.8 60.8 40% 88 30 0.0
30 10:55 SW 10 G 20 10.00 Fair CLR 87.8 60.8 40% 88 29.99 0.0
30 10:35 SW 13 G 18 10.00 Fair CLR 87.8 60.8 40% 88 29.99 0.0
30 10:15 SW 14 G 20 10.00 Fair CLR 86 60.8 43% 86 29.99 0.0
30 09:55 SW 13 G 18 10.00 Fair CLR 82.4 60.8 48% 83 29.99 0.0
30 09:35 SW 15 G 20 10.00 Fair CLR 82.4 59 45% 82 29.99 0.0
30 09:15 S 12 G 17 10.00 Fair CLR 80.6 59 48% 81 29.99 0.0
30 08:35 S 6 10.00 Fair CLR 77 60.8 57% 79 30 0.0
30 08:15 S 7 10.00 Fair CLR 75.2 60.8 61% 77 30.01 0.0
30 07:55 S 5 10.00 Fair CLR 73.4 60.8 65% 30 0.0
30 07:35 S 5 10.00 Fair CLR 73.4 60.8 65% 30.01 0.0
30 07:15 S 3 10.00 Fair CLR 71.6 60.8 69% 30 0.0
30 06:55 S 3 10.00 Fair CLR 71.6 60.8 69% 30.01 0.0
30 06:35 Calm 10.00 Fair CLR 73.4 60.8 65% 30 0.0
30 06:15 S 3 10.00 Fair CLR 73.4 60.8 65% 30 0.0
30 05:55 S 3 10.00 Fair CLR 73.4 60.8 65% 29.99 0.0
30 05:35 S 3 10.00 Fair CLR 73.4 60.8 65% 29.99 0.0
30 05:15 S 5 10.00 Fair CLR 73.4 60.8 65% 29.99 0.0
30 04:55 S 5 10.00 Fair CLR 73.4 60.8 65% 29.99 0.0
30 04:35 S 3 10.00 Fair CLR 73.4 60.8 65% 30 0.0
30 04:15 S 3 10.00 Fair CLR 73.4 60.8 65% 29.99 0.0
30 03:55 S 3 10.00 Fair CLR 73.4 60.8 65% 29.99 0.0
30 03:35 S 3 10.00 Fair CLR 73.4 60.8 65% 29.99 0.0
30 03:15 S 5 10.00 Fair CLR 75.2 60.8 61% 77 29.98 0.0
30 02:55 S 5 10.00 Fair CLR 77 60.8 57% 79 29.99 0.0
30 02:35 S 5 10.00 Fair CLR 77 60.8 57% 79 29.98 0.0
30 02:15 S 5 10.00 Fair CLR 77 60.8 57% 79 29.98 0.0
30 01:55 S 3 10.00 Fair CLR 77 60.8 57% 79 29.98 0.0
30 01:35 S 6 10.00 Fair CLR 78.8 60.8 54% 80 29.99 0.0
30 01:15 S 6 10.00 Fair CLR 78.8 60.8 54% 80 29.99 0.0
30 00:55 S 7 10.00 Fair CLR 78.8 60.8 54% 80 29.99 0.0
30 00:35 S 6 10.00 Fair CLR 80.6 60.8 51% 81 29.99 0.0
30 00:15 S 8 10.00 Fair CLR 80.6 60.8 51% 81 29.98 0.0
29 23:55 S 6 10.00 Fair CLR 80.6 60.8 51% 81 29.99 0.0
29 23:35 S 7 10.00 Fair CLR 80.6 60.8 51% 81 29.99 0.0
29 23:15 S 8 10.00 Fair CLR 82.4 60.8 48% 83 29.99 0.0
29 22:55 S 7 10.00 Fair CLR 80.6 60.8 51% 81 29.99 0.0
29 22:35 S 9 10.00 Fair CLR 80.6 60.8 51% 81 29.99 0.0
29 22:15 S 7 10.00 Fair CLR 80.6 60.8 51% 81 29.99 0.0
29 21:55 S 7 10.00 Fair CLR 82.4 59 45% 82 29.98 0.0
29 21:35 S 6 10.00 Fair CLR 82.4 59 45% 82 29.97 0.0
29 21:15 S 6 10.00 Fair CLR 80.6 60.8 51% 81 29.97 0.0
29 20:55 SE 6 10.00 Fair CLR 80.6 60.8 51% 81 29.97 0.0
29 20:35 S 6 7.00 Fair CLR 84.2 60.8 45% 84 29.96 0.0
29 20:15 S 5 10.00 Fair CLR 84.2 60.8 45% 84 29.95 0.0
29 19:55 S 5 10.00 Fair CLR 86 62.6 46% 87 29.95 0.0
29 19:35 Calm 10.00 Fair CLR 89.6 59 36% 89 29.95 0.0
29 19:15 S 6 10.00 Fair CLR 91.4 59 34% 91 29.95 0.0
29 18:55 S 6 10.00 Fair CLR 93.2 59 32% 93 29.95 0.0
29 18:35 S 8 10.00 Fair CLR 95 57.2 28% 94 29.95 0.0
29 18:15 S 7 10.00 Fair CLR 96.8 57.2 27% 96 29.96 0.0
29 17:55 S 12 10.00 Fair CLR 96.8 57.2 27% 96 29.95 0.0
29 17:35 SW 13 G 17 10.00 Fair CLR 98.6 57.2 25% 98 29.96 0.0
29 17:15 S 10 G 16 10.00 Fair CLR 98.6 59 27% 98 29.96 0.0
29 16:55 S 12 10.00 Fair CLR 98.6 59 27% 98 29.96 0.0
29 16:35 S 12 10.00 Fair CLR 98.6 59 27% 98 29.97 0.0
29 16:15 S 10 G 18 10.00 Fair CLR 98.6 59 27% 98 29.97 0.0
29 15:55 S 9 10.00 Fair CLR 98.6 59 27% 98 29.98 0.0
29 15:35 SW 9 G 17 10.00 Fair CLR 98.6 59 27% 98 29.99 0.0
29 15:15 S 12 10.00 Fair CLR 98.6 59 27% 98 30 0.0
29 14:55 S 10 G 17 10.00 Fair CLR 96.8 59 28% 96 30 0.0
29 14:35 SW 12 10.00 Fair CLR 96.8 59 28% 96 30.01 0.0
29 14:15 S 10 10.00 Fair CLR 96.8 60.8 30% 97 30.02 0.0
29 13:55 S 12 G 17 10.00 Fair CLR 95 60.8 32% 95 30.03 0.0
29 13:35 S 10 G 16 10.00 Fair CLR 93.2 60.8 34% 93 30.04 0.0
29 13:15 S 10 G 16 10.00 Fair CLR 91.4 60.8 36% 91 30.05 0.0
29 12:55 S 10 G 17 10.00 Fair CLR 91.4 60.8 36% 91 30.06 0.0
29 12:35 SW 8 10.00 Fair CLR 89.6 60.8 38% 90 30.07 0.0
29 11:15 S 8 10.00 Partly Cloudy SCT100 84.2 60.8 45% 84 30.1 0.0
29 10:55 S 7 10.00 Partly Cloudy SCT100 82.4 60.8 48% 83 30.11 0.0
29 10:35 S 6 10.00 Fair CLR 80.6 62.6 54% 82 30.11 0.0
29 10:15 S 8 10.00 Fair CLR 78.8 60.8 54% 80 30.11 0.0
29 09:55 S 7 10.00 Fair CLR 78.8 60.8 54% 80 30.11 0.0
29 09:35 S 6 10.00 Fair CLR 75.2 60.8 61% 77 30.12 0.0
29 09:15 S 5 10.00 Fair CLR 73.4 60.8 65% 30.12 0.0
29 08:35 S 6 10.00 Fair CLR 69.8 60.8 73% 30.12 0.0
29 08:15 SE 5 10.00 Fair CLR 68 60.8 78% 30.12 0.0
29 07:55 SE 3 10.00 Fair CLR 68 59 73% 30.11 0.0
29 07:35 Calm 10.00 Fair CLR 64.4 59 83% 30.11 0.0
29 07:15 SE 3 10.00 Fair CLR 64.4 59 83% 30.11 0.0
29 06:55 Calm 10.00 Fair CLR 64.4 59 83% 30.11 0.0
29 06:35 Calm 10.00 Fair CLR 64.4 59 83% 30.1 0.0
29 06:15 SE 3 10.00 Fair CLR 64.4 59 83% 30.09 0.0
29 05:55 SE 5 10.00 Fair CLR 64.4 59 83% 30.09 0.0
29 05:35 SE 3 10.00 Fair CLR 66.2 59 78% 30.09 0.0
Date Time (cdt) Wind (mph) Vis. (mi.) Weather Sky Cond. Air Dwpt Max. Min. Relative Humidity Wind Chill (°F) Heat Index (°F) altimeter (in) sea level (mb) 1 hr 3 hr 6 hr
6 hour
Temperature (ºF) Pressure Precipitation (in)